Hovedside
METAR-TAF:

METAR-TAF

Lufthavner :

Værøy helikopterhavn. Tabbisodden

Værøy, Norge

breddegrad: 67-39-16N, lengdegrad: 12-43-37E, høyde over havet: 5 m

Gjeldene værobservasjon

Denne rapporten ble laget for 10 timer og 46 minutter siden, klokken 14:50 UTC
Vind 18 kt fra Nordøst
Temperatur 4°C
Luftfuktighet 65%
Trykk 1009 hPa
Sikt 10 km eller mer
Få skyer i en høyde av 2600 ft

METAR: ENVR 101450Z 04018KT 9999 FEW026 04/M02 Q1009

Tid: 02:36 (01:36 UTC)


TAF: fraværende

Værobservasjoner og værvarsel for over 4000 flyplasser (METAR- og TAF-rapporter).

Tilgjengelige stasjoner er representert av de røde og gule prikkene på kartet.

Hold musepekeren over prikken for å se navnet på stasjonen.

Klikk så for å se værobservasjoner og -varsler.

For å forandre kartet kan du klikke på den grønne knappen med svart kryss for å zoome inn, på den grønne knappen med strek for å zoome ut, eller på de grønne pilene for å se tilstøtende kart.


METAR-TAF: